sensor_id;sensor_type;location;lat;lon;timestamp;P1;durP1;ratioP1;P2;durP2;ratioP2
2538;SDS011;1280;49.760;9.664;2022-09-13T00:00:47;12.40;;;8.53;;
2538;SDS011;1280;49.760;9.664;2022-09-13T00:03:16;15.73;;;9.43;;
2538;SDS011;1280;49.760;9.664;2022-09-13T00:05:48;12.47;;;9.20;;
2538;SDS011;1280;49.760;9.664;2022-09-13T00:08:17;14.23;;;9.37;;
2538;SDS011;1280;49.760;9.664;2022-09-13T00:10:45;13.77;;;8.67;;
2538;SDS011;1280;49.760;9.664;2022-09-13T00:13:15;12.43;;;9.00;;
2538;SDS011;1280;49.760;9.664;2022-09-13T00:15:43;12.20;;;8.17;;
2538;SDS011;1280;49.760;9.664;2022-09-13T00:18:13;12.10;;;7.50;;
2538;SDS011;1280;49.760;9.664;2022-09-13T00:20:41;12.43;;;8.50;;
2538;SDS011;1280;49.760;9.664;2022-09-13T00:23:09;12.50;;;9.20;;
2538;SDS011;1280;49.760;9.664;2022-09-13T00:25:39;10.93;;;7.80;;
2538;SDS011;1280;49.760;9.664;2022-09-13T00:28:07;12.10;;;8.27;;
2538;SDS011;1280;49.760;9.664;2022-09-13T00:30:35;14.13;;;7.80;;
2538;SDS011;1280;49.760;9.664;2022-09-13T00:33:03;11.97;;;8.10;;
2538;SDS011;1280;49.760;9.664;2022-09-13T00:35:31;12.00;;;8.60;;
2538;SDS011;1280;49.760;9.664;2022-09-13T00:37:59;12.40;;;8.13;;
2538;SDS011;1280;49.760;9.664;2022-09-13T00:40:27;14.30;;;8.90;;
2538;SDS011;1280;49.760;9.664;2022-09-13T00:42:57;12.53;;;8.47;;
2538;SDS011;1280;49.760;9.664;2022-09-13T00:45:25;12.67;;;9.20;;
2538;SDS011;1280;49.760;9.664;2022-09-13T00:47:54;12.70;;;8.23;;
2538;SDS011;1280;49.760;9.664;2022-09-13T00:50:26;13.80;;;9.73;;
2538;SDS011;1280;49.760;9.664;2022-09-13T00:52:59;13.40;;;9.23;;
2538;SDS011;1280;49.760;9.664;2022-09-13T00:55:31;13.37;;;9.13;;
2538;SDS011;1280;49.760;9.664;2022-09-13T00:58:06;13.30;;;8.67;;
2538;SDS011;1280;49.760;9.664;2022-09-13T01:00:39;12.07;;;8.83;;
2538;SDS011;1280;49.760;9.664;2022-09-13T01:03:08;13.83;;;9.70;;
2538;SDS011;1280;49.760;9.664;2022-09-13T01:05:39;12.53;;;8.63;;
2538;SDS011;1280;49.760;9.664;2022-09-13T01:08:10;12.67;;;9.23;;
2538;SDS011;1280;49.760;9.664;2022-09-13T01:10:43;12.50;;;9.27;;
2538;SDS011;1280;49.760;9.664;2022-09-13T01:13:15;14.93;;;9.07;;
2538;SDS011;1280;49.760;9.664;2022-09-13T01:15:45;11.67;;;8.43;;
2538;SDS011;1280;49.760;9.664;2022-09-13T01:18:14;14.50;;;9.40;;
2538;SDS011;1280;49.760;9.664;2022-09-13T01:20:44;14.47;;;9.87;;
2538;SDS011;1280;49.760;9.664;2022-09-13T01:23:35;11.97;;;8.70;;
2538;SDS011;1280;49.760;9.664;2022-09-13T01:26:29;11.80;;;8.63;;
2538;SDS011;1280;49.760;9.664;2022-09-13T01:29:32;13.37;;;8.70;;
2538;SDS011;1280;49.760;9.664;2022-09-13T01:32:30;14.73;;;9.20;;
2538;SDS011;1280;49.760;9.664;2022-09-13T01:35:09;12.83;;;8.87;;
2538;SDS011;1280;49.760;9.664;2022-09-13T01:37:46;13.53;;;9.33;;
2538;SDS011;1280;49.760;9.664;2022-09-13T01:40:23;13.20;;;8.50;;
2538;SDS011;1280;49.760;9.664;2022-09-13T01:43:15;11.17;;;8.10;;
2538;SDS011;1280;49.760;9.664;2022-09-13T01:45:55;14.47;;;9.97;;
2538;SDS011;1280;49.760;9.664;2022-09-13T01:48:33;13.50;;;9.70;;
2538;SDS011;1280;49.760;9.664;2022-09-13T01:51:11;13.07;;;9.37;;
2538;SDS011;1280;49.760;9.664;2022-09-13T01:53:47;12.40;;;8.93;;
2538;SDS011;1280;49.760;9.664;2022-09-13T01:56:21;12.33;;;9.10;;
2538;SDS011;1280;49.760;9.664;2022-09-13T01:58:55;12.70;;;9.00;;
2538;SDS011;1280;49.760;9.664;2022-09-13T02:01:28;13.73;;;9.00;;
2538;SDS011;1280;49.760;9.664;2022-09-13T02:04:04;13.70;;;9.27;;
2538;SDS011;1280;49.760;9.664;2022-09-13T02:06:37;11.63;;;8.60;;
2538;SDS011;1280;49.760;9.664;2022-09-13T02:09:12;16.80;;;9.90;;
2538;SDS011;1280;49.760;9.664;2022-09-13T02:11:48;12.73;;;9.40;;
2538;SDS011;1280;49.760;9.664;2022-09-13T02:14:20;15.70;;;8.13;;
2538;SDS011;1280;49.760;9.664;2022-09-13T02:16:55;11.73;;;8.10;;
2538;SDS011;1280;49.760;9.664;2022-09-13T02:19:28;13.00;;;8.87;;
2538;SDS011;1280;49.760;9.664;2022-09-13T02:22:02;13.40;;;8.13;;
2538;SDS011;1280;49.760;9.664;2022-09-13T02:24:33;11.40;;;8.10;;
2538;SDS011;1280;49.760;9.664;2022-09-13T02:27:04;12.30;;;7.90;;
2538;SDS011;1280;49.760;9.664;2022-09-13T02:29:36;11.60;;;7.50;;
2538;SDS011;1280;49.760;9.664;2022-09-13T02:32:09;10.10;;;6.90;;
2538;SDS011;1280;49.760;9.664;2022-09-13T02:34:42;10.17;;;6.80;;
2538;SDS011;1280;49.760;9.664;2022-09-13T02:37:13;15.00;;;8.97;;
2538;SDS011;1280;49.760;9.664;2022-09-13T02:39:42;11.93;;;7.73;;
2538;SDS011;1280;49.760;9.664;2022-09-13T02:42:16;11.07;;;8.43;;
2538;SDS011;1280;49.760;9.664;2022-09-13T02:44:47;13.77;;;9.07;;
2538;SDS011;1280;49.760;9.664;2022-09-13T02:47:23;12.20;;;7.80;;
2538;SDS011;1280;49.760;9.664;2022-09-13T02:50:01;13.40;;;9.20;;
2538;SDS011;1280;49.760;9.664;2022-09-13T02:52:39;12.63;;;9.20;;
2538;SDS011;1280;49.760;9.664;2022-09-13T02:55:15;15.47;;;8.90;;
2538;SDS011;1280;49.760;9.664;2022-09-13T02:57:54;13.70;;;9.30;;
2538;SDS011;1280;49.760;9.664;2022-09-13T03:00:28;11.53;;;8.60;;
2538;SDS011;1280;49.760;9.664;2022-09-13T03:02:58;16.47;;;10.50;;
2538;SDS011;1280;49.760;9.664;2022-09-13T03:05:31;12.93;;;9.17;;
2538;SDS011;1280;49.760;9.664;2022-09-13T03:07:59;15.47;;;9.87;;
2538;SDS011;1280;49.760;9.664;2022-09-13T03:10:29;13.13;;;9.17;;
2538;SDS011;1280;49.760;9.664;2022-09-13T03:13:10;11.87;;;8.30;;
2538;SDS011;1280;49.760;9.664;2022-09-13T03:15:54;12.70;;;7.90;;
2538;SDS011;1280;49.760;9.664;2022-09-13T03:18:38;12.67;;;8.77;;
2538;SDS011;1280;49.760;9.664;2022-09-13T03:21:17;16.40;;;10.00;;
2538;SDS011;1280;49.760;9.664;2022-09-13T03:24:03;13.17;;;8.73;;
2538;SDS011;1280;49.760;9.664;2022-09-13T03:26:43;11.37;;;7.63;;
2538;SDS011;1280;49.760;9.664;2022-09-13T03:29:21;11.90;;;7.83;;
2538;SDS011;1280;49.760;9.664;2022-09-13T03:31:56;13.17;;;7.83;;
2538;SDS011;1280;49.760;9.664;2022-09-13T03:34:44;16.70;;;9.17;;
2538;SDS011;1280;49.760;9.664;2022-09-13T03:37:21;13.10;;;8.70;;
2538;SDS011;1280;49.760;9.664;2022-09-13T03:39:55;14.60;;;9.93;;
2538;SDS011;1280;49.760;9.664;2022-09-13T03:42:28;21.33;;;10.70;;
2538;SDS011;1280;49.760;9.664;2022-09-13T03:45:01;18.63;;;11.57;;
2538;SDS011;1280;49.760;9.664;2022-09-13T03:47:31;20.50;;;13.30;;
2538;SDS011;1280;49.760;9.664;2022-09-13T03:50:03;29.77;;;14.60;;
2538;SDS011;1280;49.760;9.664;2022-09-13T03:52:33;73.50;;;16.10;;
2538;SDS011;1280;49.760;9.664;2022-09-13T03:55:02;25.50;;;16.37;;
2538;SDS011;1280;49.760;9.664;2022-09-13T03:57:30;27.50;;;14.80;;
2538;SDS011;1280;49.760;9.664;2022-09-13T03:59:58;42.83;;;17.47;;
2538;SDS011;1280;49.760;9.664;2022-09-13T04:02:27;29.10;;;16.87;;
2538;SDS011;1280;49.760;9.664;2022-09-13T04:04:55;39.37;;;18.20;;
2538;SDS011;1280;49.760;9.664;2022-09-13T04:07:24;31.00;;;17.10;;
2538;SDS011;1280;49.760;9.664;2022-09-13T04:09:53;51.27;;;17.50;;
2538;SDS011;1280;49.760;9.664;2022-09-13T04:12:21;51.80;;;17.50;;
2538;SDS011;1280;49.760;9.664;2022-09-13T04:14:49;36.83;;;18.70;;
2538;SDS011;1280;49.760;9.664;2022-09-13T04:17:17;39.80;;;19.67;;
2538;SDS011;1280;49.760;9.664;2022-09-13T04:19:45;57.70;;;19.77;;
2538;SDS011;1280;49.760;9.664;2022-09-13T04:22:13;41.97;;;18.70;;
2538;SDS011;1280;49.760;9.664;2022-09-13T04:24:43;70.37;;;18.07;;
2538;SDS011;1280;49.760;9.664;2022-09-13T04:27:11;53.40;;;16.87;;
2538;SDS011;1280;49.760;9.664;2022-09-13T04:29:39;49.07;;;15.77;;
2538;SDS011;1280;49.760;9.664;2022-09-13T04:32:07;57.03;;;16.90;;
2538;SDS011;1280;49.760;9.664;2022-09-13T04:34:36;51.27;;;16.20;;
2538;SDS011;1280;49.760;9.664;2022-09-13T04:37:04;37.23;;;15.80;;
2538;SDS011;1280;49.760;9.664;2022-09-13T04:39:32;23.17;;;14.80;;
2538;SDS011;1280;49.760;9.664;2022-09-13T04:42:01;29.03;;;14.00;;
2538;SDS011;1280;49.760;9.664;2022-09-13T04:44:30;22.10;;;13.87;;
2538;SDS011;1280;49.760;9.664;2022-09-13T04:46:58;23.57;;;14.20;;
2538;SDS011;1280;49.760;9.664;2022-09-13T04:49:26;19.50;;;12.80;;
2538;SDS011;1280;49.760;9.664;2022-09-13T04:51:54;19.47;;;13.90;;
2538;SDS011;1280;49.760;9.664;2022-09-13T04:54:22;17.73;;;12.80;;
2538;SDS011;1280;49.760;9.664;2022-09-13T04:56:50;19.60;;;13.57;;
2538;SDS011;1280;49.760;9.664;2022-09-13T04:59:19;21.07;;;13.60;;
2538;SDS011;1280;49.760;9.664;2022-09-13T05:01:47;19.90;;;12.83;;
2538;SDS011;1280;49.760;9.664;2022-09-13T05:04:15;18.70;;;12.63;;
2538;SDS011;1280;49.760;9.664;2022-09-13T05:06:43;22.93;;;13.20;;
2538;SDS011;1280;49.760;9.664;2022-09-13T05:09:13;19.27;;;13.33;;
2538;SDS011;1280;49.760;9.664;2022-09-13T05:11:41;19.00;;;13.20;;
2538;SDS011;1280;49.760;9.664;2022-09-13T05:14:09;16.77;;;11.80;;
2538;SDS011;1280;49.760;9.664;2022-09-13T05:16:39;18.70;;;12.10;;
2538;SDS011;1280;49.760;9.664;2022-09-13T05:19:08;16.17;;;11.60;;
2538;SDS011;1280;49.760;9.664;2022-09-13T05:21:36;18.57;;;12.27;;
2538;SDS011;1280;49.760;9.664;2022-09-13T05:24:04;15.47;;;11.00;;
2538;SDS011;1280;49.760;9.664;2022-09-13T05:26:32;17.07;;;11.70;;
2538;SDS011;1280;49.760;9.664;2022-09-13T05:29:00;15.53;;;10.90;;
2538;SDS011;1280;49.760;9.664;2022-09-13T05:31:29;16.83;;;10.87;;
2538;SDS011;1280;49.760;9.664;2022-09-13T05:34:00;16.70;;;11.60;;
2538;SDS011;1280;49.760;9.664;2022-09-13T05:36:30;17.20;;;11.40;;
2538;SDS011;1280;49.760;9.664;2022-09-13T05:38:58;17.17;;;11.33;;
2538;SDS011;1280;49.760;9.664;2022-09-13T05:41:46;14.77;;;10.47;;
2538;SDS011;1280;49.760;9.664;2022-09-13T05:44:14;14.70;;;9.63;;
2538;SDS011;1280;49.760;9.664;2022-09-13T05:46:45;14.70;;;10.07;;
2538;SDS011;1280;49.760;9.664;2022-09-13T05:49:15;15.93;;;10.90;;
2538;SDS011;1280;49.760;9.664;2022-09-13T05:51:43;14.80;;;10.97;;
2538;SDS011;1280;49.760;9.664;2022-09-13T05:54:11;17.63;;;12.30;;
2538;SDS011;1280;49.760;9.664;2022-09-13T05:56:39;16.87;;;10.60;;
2538;SDS011;1280;49.760;9.664;2022-09-13T05:59:10;14.90;;;11.00;;
2538;SDS011;1280;49.760;9.664;2022-09-13T06:01:39;14.93;;;10.87;;
2538;SDS011;1280;49.760;9.664;2022-09-13T06:04:07;18.40;;;11.33;;
2538;SDS011;1280;49.760;9.664;2022-09-13T06:06:39;15.97;;;10.53;;
2538;SDS011;1280;49.760;9.664;2022-09-13T06:09:06;14.13;;;10.20;;
2538;SDS011;1280;49.760;9.664;2022-09-13T06:11:37;16.47;;;10.93;;
2538;SDS011;1280;49.760;9.664;2022-09-13T06:14:05;13.83;;;9.23;;
2538;SDS011;1280;49.760;9.664;2022-09-13T06:16:33;16.00;;;11.20;;
2538;SDS011;1280;49.760;9.664;2022-09-13T06:19:01;14.50;;;10.23;;
2538;SDS011;1280;49.760;9.664;2022-09-13T06:21:29;12.97;;;9.73;;
2538;SDS011;1280;49.760;9.664;2022-09-13T06:23:58;15.73;;;10.47;;
2538;SDS011;1280;49.760;9.664;2022-09-13T06:26:26;16.27;;;9.73;;
2538;SDS011;1280;49.760;9.664;2022-09-13T06:28:56;15.07;;;10.07;;
2538;SDS011;1280;49.760;9.664;2022-09-13T06:31:25;14.50;;;10.53;;
2538;SDS011;1280;49.760;9.664;2022-09-13T06:33:55;15.10;;;10.73;;
2538;SDS011;1280;49.760;9.664;2022-09-13T06:36:24;14.87;;;10.90;;
2538;SDS011;1280;49.760;9.664;2022-09-13T06:38:53;16.43;;;11.10;;
2538;SDS011;1280;49.760;9.664;2022-09-13T06:41:23;16.00;;;11.10;;
2538;SDS011;1280;49.760;9.664;2022-09-13T06:43:52;16.50;;;11.43;;
2538;SDS011;1280;49.760;9.664;2022-09-13T06:46:22;15.33;;;11.13;;
2538;SDS011;1280;49.760;9.664;2022-09-13T06:48:51;15.80;;;11.20;;
2538;SDS011;1280;49.760;9.664;2022-09-13T06:51:20;13.73;;;10.40;;
2538;SDS011;1280;49.760;9.664;2022-09-13T06:53:49;16.90;;;11.37;;
2538;SDS011;1280;49.760;9.664;2022-09-13T06:56:19;16.53;;;11.07;;
2538;SDS011;1280;49.760;9.664;2022-09-13T06:58:51;17.43;;;10.60;;
2538;SDS011;1280;49.760;9.664;2022-09-13T07:01:22;15.47;;;10.53;;
2538;SDS011;1280;49.760;9.664;2022-09-13T07:03:52;17.07;;;10.83;;
2538;SDS011;1280;49.760;9.664;2022-09-13T07:06:26;18.43;;;11.53;;
2538;SDS011;1280;49.760;9.664;2022-09-13T07:08:56;17.33;;;11.60;;
2538;SDS011;1280;49.760;9.664;2022-09-13T07:11:30;16.10;;;11.87;;
2538;SDS011;1280;49.760;9.664;2022-09-13T07:14:01;18.03;;;12.40;;
2538;SDS011;1280;49.760;9.664;2022-09-13T07:16:29;16.00;;;11.77;;
2538;SDS011;1280;49.760;9.664;2022-09-13T07:18:59;17.80;;;12.20;;
2538;SDS011;1280;49.760;9.664;2022-09-13T07:21:31;18.10;;;12.30;;
2538;SDS011;1280;49.760;9.664;2022-09-13T07:24:00;15.13;;;11.70;;
2538;SDS011;1280;49.760;9.664;2022-09-13T07:26:28;15.90;;;11.70;;
2538;SDS011;1280;49.760;9.664;2022-09-13T07:28:57;17.37;;;11.90;;
2538;SDS011;1280;49.760;9.664;2022-09-13T07:31:30;18.50;;;12.03;;
2538;SDS011;1280;49.760;9.664;2022-09-13T07:33:59;14.70;;;12.13;;
2538;SDS011;1280;49.760;9.664;2022-09-13T07:36:28;19.10;;;13.43;;
2538;SDS011;1280;49.760;9.664;2022-09-13T07:38:57;18.90;;;11.77;;
2538;SDS011;1280;49.760;9.664;2022-09-13T07:41:27;16.53;;;12.10;;
2538;SDS011;1280;49.760;9.664;2022-09-13T07:43:56;13.93;;;9.87;;
2538;SDS011;1280;49.760;9.664;2022-09-13T07:46:27;15.70;;;11.47;;
2538;SDS011;1280;49.760;9.664;2022-09-13T07:48:58;63.43;;;15.90;;
2538;SDS011;1280;49.760;9.664;2022-09-13T07:51:28;38.70;;;13.73;;
2538;SDS011;1280;49.760;9.664;2022-09-13T07:53:58;39.97;;;13.93;;
2538;SDS011;1280;49.760;9.664;2022-09-13T07:56:29;18.77;;;12.10;;
2538;SDS011;1280;49.760;9.664;2022-09-13T07:58:58;35.17;;;17.03;;
2538;SDS011;1280;49.760;9.664;2022-09-13T08:01:31;44.33;;;16.63;;
2538;SDS011;1280;49.760;9.664;2022-09-13T08:04:02;22.07;;;13.70;;
2538;SDS011;1280;49.760;9.664;2022-09-13T08:06:32;24.80;;;14.83;;
2538;SDS011;1280;49.760;9.664;2022-09-13T08:09:02;22.17;;;12.83;;
2538;SDS011;1280;49.760;9.664;2022-09-13T08:11:32;30.90;;;13.00;;
2538;SDS011;1280;49.760;9.664;2022-09-13T08:14:02;25.50;;;13.63;;
2538;SDS011;1280;49.760;9.664;2022-09-13T08:16:32;18.17;;;12.27;;
2538;SDS011;1280;49.760;9.664;2022-09-13T08:19:01;47.00;;;42.10;;
2538;SDS011;1280;49.760;9.664;2022-09-13T08:21:31;38.17;;;28.30;;
2538;SDS011;1280;49.760;9.664;2022-09-13T08:24:00;19.87;;;14.83;;
2538;SDS011;1280;49.760;9.664;2022-09-13T08:26:30;18.97;;;12.50;;
2538;SDS011;1280;49.760;9.664;2022-09-13T08:29:00;19.63;;;12.70;;
2538;SDS011;1280;49.760;9.664;2022-09-13T08:31:29;18.63;;;13.80;;
2538;SDS011;1280;49.760;9.664;2022-09-13T08:34:00;17.83;;;12.90;;
2538;SDS011;1280;49.760;9.664;2022-09-13T08:36:28;18.40;;;12.77;;
2538;SDS011;1280;49.760;9.664;2022-09-13T08:38:57;17.67;;;12.50;;
2538;SDS011;1280;49.760;9.664;2022-09-13T08:41:31;18.13;;;12.30;;
2538;SDS011;1280;49.760;9.664;2022-09-13T08:44:18;18.63;;;12.87;;
2538;SDS011;1280;49.760;9.664;2022-09-13T08:46:54;17.70;;;12.83;;
2538;SDS011;1280;49.760;9.664;2022-09-13T08:49:29;29.23;;;16.10;;
2538;SDS011;1280;49.760;9.664;2022-09-13T08:52:00;24.10;;;15.37;;
2538;SDS011;1280;49.760;9.664;2022-09-13T08:54:38;20.73;;;12.93;;
2538;SDS011;1280;49.760;9.664;2022-09-13T08:57:07;20.80;;;13.10;;
2538;SDS011;1280;49.760;9.664;2022-09-13T08:59:46;18.07;;;10.90;;
2538;SDS011;1280;49.760;9.664;2022-09-13T09:02:24;16.70;;;11.87;;
2538;SDS011;1280;49.760;9.664;2022-09-13T09:05:05;17.50;;;12.90;;
2538;SDS011;1280;49.760;9.664;2022-09-13T09:07:41;16.43;;;11.87;;
2538;SDS011;1280;49.760;9.664;2022-09-13T09:10:13;19.67;;;12.40;;
2538;SDS011;1280;49.760;9.664;2022-09-13T09:12:45;15.50;;;10.80;;
2538;SDS011;1280;49.760;9.664;2022-09-13T09:15:15;20.10;;;10.03;;
2538;SDS011;1280;49.760;9.664;2022-09-13T09:17:50;12.57;;;8.83;;
2538;SDS011;1280;49.760;9.664;2022-09-13T09:20:24;12.57;;;8.30;;
2538;SDS011;1280;49.760;9.664;2022-09-13T09:22:58;57.13;;;13.60;;
2538;SDS011;1280;49.760;9.664;2022-09-13T09:25:29;41.17;;;11.60;;
2538;SDS011;1280;49.760;9.664;2022-09-13T09:27:57;16.23;;;8.73;;
2538;SDS011;1280;49.760;9.664;2022-09-13T09:30:27;34.53;;;9.37;;
2538;SDS011;1280;49.760;9.664;2022-09-13T09:33:08;14.30;;;7.87;;
2538;SDS011;1280;49.760;9.664;2022-09-13T09:35:50;10.60;;;7.83;;
2538;SDS011;1280;49.760;9.664;2022-09-13T09:38:32;12.47;;;8.70;;
2538;SDS011;1280;49.760;9.664;2022-09-13T09:41:05;12.20;;;8.80;;
2538;SDS011;1280;49.760;9.664;2022-09-13T09:43:42;31.97;;;9.53;;
2538;SDS011;1280;49.760;9.664;2022-09-13T09:46:14;37.27;;;11.67;;
2538;SDS011;1280;49.760;9.664;2022-09-13T09:48:47;45.93;;;11.40;;
2538;SDS011;1280;49.760;9.664;2022-09-13T09:51:18;24.70;;;9.83;;
2538;SDS011;1280;49.760;9.664;2022-09-13T09:53:51;12.97;;;8.90;;
2538;SDS011;1280;49.760;9.664;2022-09-13T09:56:27;28.20;;;10.07;;
2538;SDS011;1280;49.760;9.664;2022-09-13T09:58:58;70.93;;;15.50;;
2538;SDS011;1280;49.760;9.664;2022-09-13T10:01:28;28.83;;;10.27;;
2538;SDS011;1280;49.760;9.664;2022-09-13T10:04:04;20.17;;;10.60;;
2538;SDS011;1280;49.760;9.664;2022-09-13T10:06:34;47.97;;;15.40;;
2538;SDS011;1280;49.760;9.664;2022-09-13T10:09:04;21.27;;;10.10;;
2538;SDS011;1280;49.760;9.664;2022-09-13T10:11:41;16.40;;;9.90;;
2538;SDS011;1280;49.760;9.664;2022-09-13T10:14:27;15.13;;;8.07;;
2538;SDS011;1280;49.760;9.664;2022-09-13T10:17:01;33.37;;;12.03;;
2538;SDS011;1280;49.760;9.664;2022-09-13T10:19:33;22.03;;;11.63;;
2538;SDS011;1280;49.760;9.664;2022-09-13T10:22:02;44.90;;;14.00;;
2538;SDS011;1280;49.760;9.664;2022-09-13T10:24:31;74.70;;;15.63;;
2538;SDS011;1280;49.760;9.664;2022-09-13T10:26:59;51.17;;;13.87;;
2538;SDS011;1280;49.760;9.664;2022-09-13T10:29:29;20.37;;;12.00;;
2538;SDS011;1280;49.760;9.664;2022-09-13T10:31:58;42.30;;;15.30;;
2538;SDS011;1280;49.760;9.664;2022-09-13T10:34:34;33.07;;;13.30;;
2538;SDS011;1280;49.760;9.664;2022-09-13T10:37:04;105.27;;;24.87;;
2538;SDS011;1280;49.760;9.664;2022-09-13T10:39:47;43.57;;;14.40;;
2538;SDS011;1280;49.760;9.664;2022-09-13T10:42:27;25.77;;;12.10;;
2538;SDS011;1280;49.760;9.664;2022-09-13T10:44:56;21.00;;;11.10;;
2538;SDS011;1280;49.760;9.664;2022-09-13T10:47:28;17.57;;;11.43;;
2538;SDS011;1280;49.760;9.664;2022-09-13T10:50:15;17.10;;;11.10;;
2538;SDS011;1280;49.760;9.664;2022-09-13T10:52:47;19.57;;;11.37;;
2538;SDS011;1280;49.760;9.664;2022-09-13T10:55:23;14.33;;;9.80;;
2538;SDS011;1280;49.760;9.664;2022-09-13T10:57:53;20.20;;;10.83;;
2538;SDS011;1280;49.760;9.664;2022-09-13T11:00:41;17.13;;;10.30;;
2538;SDS011;1280;49.760;9.664;2022-09-13T11:03:29;16.77;;;10.57;;
2538;SDS011;1280;49.760;9.664;2022-09-13T11:06:09;19.43;;;10.80;;
2538;SDS011;1280;49.760;9.664;2022-09-13T11:08:45;19.17;;;11.40;;
2538;SDS011;1280;49.760;9.664;2022-09-13T11:11:20;13.97;;;10.77;;
2538;SDS011;1280;49.760;9.664;2022-09-13T11:13:56;16.33;;;9.60;;
2538;SDS011;1280;49.760;9.664;2022-09-13T11:16:36;14.60;;;10.50;;
2538;SDS011;1280;49.760;9.664;2022-09-13T11:19:29;15.80;;;10.73;;
2538;SDS011;1280;49.760;9.664;2022-09-13T11:22:26;15.90;;;10.07;;
2538;SDS011;1280;49.760;9.664;2022-09-13T11:25:13;11.67;;;9.00;;
2538;SDS011;1280;49.760;9.664;2022-09-13T11:27:52;14.93;;;9.80;;
2538;SDS011;1280;49.760;9.664;2022-09-13T11:30:25;16.50;;;9.30;;
2538;SDS011;1280;49.760;9.664;2022-09-13T11:33:04;26.03;;;19.13;;
2538;SDS011;1280;49.760;9.664;2022-09-13T11:35:48;39.53;;;28.47;;
2538;SDS011;1280;49.760;9.664;2022-09-13T11:38:33;39.73;;;25.47;;
2538;SDS011;1280;49.760;9.664;2022-09-13T11:41:09;37.97;;;21.10;;
2538;SDS011;1280;49.760;9.664;2022-09-13T11:43:50;22.23;;;14.63;;
2538;SDS011;1280;49.760;9.664;2022-09-13T11:46:28;35.83;;;13.80;;
2538;SDS011;1280;49.760;9.664;2022-09-13T11:49:17;26.83;;;11.40;;
2538;SDS011;1280;49.760;9.664;2022-09-13T11:52:07;17.80;;;9.83;;
2538;SDS011;1280;49.760;9.664;2022-09-13T11:54:44;19.37;;;9.83;;
2538;SDS011;1280;49.760;9.664;2022-09-13T11:57:22;21.50;;;10.40;;
2538;SDS011;1280;49.760;9.664;2022-09-13T11:59:53;28.27;;;10.70;;
2538;SDS011;1280;49.760;9.664;2022-09-13T12:02:26;29.40;;;10.47;;
2538;SDS011;1280;49.760;9.664;2022-09-13T12:04:59;17.53;;;10.67;;
2538;SDS011;1280;49.760;9.664;2022-09-13T12:07:48;16.23;;;8.43;;
2538;SDS011;1280;49.760;9.664;2022-09-13T12:10:21;12.33;;;8.63;;
2538;SDS011;1280;49.760;9.664;2022-09-13T12:12:52;14.20;;;9.03;;
2538;SDS011;1280;49.760;9.664;2022-09-13T12:15:22;16.37;;;10.73;;
2538;SDS011;1280;49.760;9.664;2022-09-13T12:17:59;12.30;;;9.20;;
2538;SDS011;1280;49.760;9.664;2022-09-13T12:20:32;11.07;;;8.03;;
2538;SDS011;1280;49.760;9.664;2022-09-13T12:23:03;16.70;;;8.90;;
2538;SDS011;1280;49.760;9.664;2022-09-13T12:25:41;11.37;;;7.93;;
2538;SDS011;1280;49.760;9.664;2022-09-13T12:28:15;11.20;;;7.30;;
2538;SDS011;1280;49.760;9.664;2022-09-13T12:30:49;14.50;;;8.67;;
2538;SDS011;1280;49.760;9.664;2022-09-13T12:33:20;10.83;;;8.03;;
2538;SDS011;1280;49.760;9.664;2022-09-13T12:35:51;13.67;;;8.43;;
2538;SDS011;1280;49.760;9.664;2022-09-13T12:41:42;15.23;;;8.17;;
2538;SDS011;1280;49.760;9.664;2022-09-13T12:44:30;14.70;;;8.47;;
2538;SDS011;1280;49.760;9.664;2022-09-13T12:50:24;11.77;;;8.07;;
2538;SDS011;1280;49.760;9.664;2022-09-13T12:53:18;15.63;;;8.20;;
2538;SDS011;1280;49.760;9.664;2022-09-13T12:56:02;11.67;;;7.53;;
2538;SDS011;1280;49.760;9.664;2022-09-13T12:58:51;10.37;;;7.67;;
2538;SDS011;1280;49.760;9.664;2022-09-13T13:01:29;11.23;;;6.57;;
2538;SDS011;1280;49.760;9.664;2022-09-13T13:04:00;10.70;;;6.97;;
2538;SDS011;1280;49.760;9.664;2022-09-13T13:06:36;8.87;;;5.80;;
2538;SDS011;1280;49.760;9.664;2022-09-13T13:09:20;9.17;;;5.70;;
2538;SDS011;1280;49.760;9.664;2022-09-13T13:11:54;12.53;;;6.03;;
2538;SDS011;1280;49.760;9.664;2022-09-13T13:23:29;23.43;;;8.90;;
2538;SDS011;1280;49.760;9.664;2022-09-13T13:26:04;12.73;;;6.47;;
2538;SDS011;1280;49.760;9.664;2022-09-13T13:28:52;8.20;;;5.70;;
2538;SDS011;1280;49.760;9.664;2022-09-13T13:31:37;7.80;;;5.27;;
2538;SDS011;1280;49.760;9.664;2022-09-13T13:36:56;14.17;;;5.83;;
2538;SDS011;1280;49.760;9.664;2022-09-13T13:39:34;28.87;;;8.47;;
2538;SDS011;1280;49.760;9.664;2022-09-13T13:42:12;45.87;;;13.60;;
2538;SDS011;1280;49.760;9.664;2022-09-13T13:44:55;25.27;;;8.30;;
2538;SDS011;1280;49.760;9.664;2022-09-13T13:53:44;8.90;;;6.07;;
2538;SDS011;1280;49.760;9.664;2022-09-13T13:56:19;8.93;;;6.07;;
2538;SDS011;1280;49.760;9.664;2022-09-13T13:58:59;19.30;;;7.40;;
2538;SDS011;1280;49.760;9.664;2022-09-13T14:01:34;16.93;;;6.17;;
2538;SDS011;1280;49.760;9.664;2022-09-13T14:07:05;13.03;;;6.57;;
2538;SDS011;1280;49.760;9.664;2022-09-13T14:09:46;20.30;;;10.10;;
2538;SDS011;1280;49.760;9.664;2022-09-13T14:12:31;25.13;;;13.30;;
2538;SDS011;1280;49.760;9.664;2022-09-13T14:15:12;19.20;;;11.37;;
2538;SDS011;1280;49.760;9.664;2022-09-13T14:18:12;14.30;;;8.90;;
2538;SDS011;1280;49.760;9.664;2022-09-13T14:20:59;11.80;;;8.40;;
2538;SDS011;1280;49.760;9.664;2022-09-13T14:23:30;12.07;;;7.20;;
2538;SDS011;1280;49.760;9.664;2022-09-13T14:25:59;9.33;;;7.00;;
2538;SDS011;1280;49.760;9.664;2022-09-13T14:28:28;15.67;;;7.50;;
2538;SDS011;1280;49.760;9.664;2022-09-13T14:30:58;10.17;;;6.53;;
2538;SDS011;1280;49.760;9.664;2022-09-13T14:33:27;9.93;;;6.87;;
2538;SDS011;1280;49.760;9.664;2022-09-13T14:36:01;8.23;;;6.30;;
2538;SDS011;1280;49.760;9.664;2022-09-13T14:38:33;10.00;;;6.53;;
2538;SDS011;1280;49.760;9.664;2022-09-13T14:41:10;16.40;;;6.37;;
2538;SDS011;1280;49.760;9.664;2022-09-13T14:43:39;11.17;;;7.03;;
2538;SDS011;1280;49.760;9.664;2022-09-13T14:46:09;10.80;;;7.27;;
2538;SDS011;1280;49.760;9.664;2022-09-13T14:48:44;13.10;;;6.73;;
2538;SDS011;1280;49.760;9.664;2022-09-13T14:51:17;11.50;;;6.90;;
2538;SDS011;1280;49.760;9.664;2022-09-13T14:53:51;10.20;;;6.17;;
2538;SDS011;1280;49.760;9.664;2022-09-13T14:56:28;14.17;;;6.80;;
2538;SDS011;1280;49.760;9.664;2022-09-13T14:58:59;15.67;;;7.20;;
2538;SDS011;1280;49.760;9.664;2022-09-13T15:01:32;42.37;;;23.37;;
2538;SDS011;1280;49.760;9.664;2022-09-13T15:04:02;19.90;;;10.03;;
2538;SDS011;1280;49.760;9.664;2022-09-13T15:06:32;21.80;;;9.50;;
2538;SDS011;1280;49.760;9.664;2022-09-13T15:09:15;13.97;;;6.97;;
2538;SDS011;1280;49.760;9.664;2022-09-13T15:11:56;88.20;;;12.50;;
2538;SDS011;1280;49.760;9.664;2022-09-13T15:14:26;90.50;;;11.00;;
2538;SDS011;1280;49.760;9.664;2022-09-13T15:16:59;40.87;;;6.37;;
2538;SDS011;1280;49.760;9.664;2022-09-13T15:19:35;26.60;;;6.80;;
2538;SDS011;1280;49.760;9.664;2022-09-13T15:22:12;50.20;;;7.87;;
2538;SDS011;1280;49.760;9.664;2022-09-13T15:24:46;140.83;;;24.63;;
2538;SDS011;1280;49.760;9.664;2022-09-13T15:27:17;87.43;;;16.43;;
2538;SDS011;1280;49.760;9.664;2022-09-13T15:29:51;34.60;;;7.70;;
2538;SDS011;1280;49.760;9.664;2022-09-13T15:32:22;67.47;;;9.00;;
2538;SDS011;1280;49.760;9.664;2022-09-13T15:35:15;46.47;;;7.43;;
2538;SDS011;1280;49.760;9.664;2022-09-13T15:37:44;32.20;;;5.50;;
2538;SDS011;1280;49.760;9.664;2022-09-13T15:40:15;17.27;;;4.93;;
2538;SDS011;1280;49.760;9.664;2022-09-13T15:42:46;21.10;;;4.70;;
2538;SDS011;1280;49.760;9.664;2022-09-13T15:45:15;14.73;;;3.83;;
2538;SDS011;1280;49.760;9.664;2022-09-13T15:47:44;12.10;;;5.23;;
2538;SDS011;1280;49.760;9.664;2022-09-13T15:50:20;7.30;;;3.27;;
2538;SDS011;1280;49.760;9.664;2022-09-13T15:52:52;7.17;;;3.50;;
2538;SDS011;1280;49.760;9.664;2022-09-13T15:55:22;6.10;;;3.70;;
2538;SDS011;1280;49.760;9.664;2022-09-13T15:57:50;5.93;;;3.87;;
2538;SDS011;1280;49.760;9.664;2022-09-13T16:00:19;6.20;;;3.50;;